Dover Highway — 7JKA — position and weather

sailwx.info

Track history (hours):
 
Tides and Currents Weather Stations Pressure Air Temp Water Temp Dewpoint Dewpoint Depression Visibility Wind Speed Wind Dir Waves Ship Positions

Dover Highway

Last reported at 2018-Feb-24 04:30 UTC. Time now 2018-Feb-25 02:12 UTC.
Position N 36°49' W 075°47'.

Length 199 m; draft 8.6 m.

Type: Cargo ship. MMSI: 432824000.

Date/timePositionNaut miles runAvg speedWind from/ knotsBaromVisibWave heightAir tempDewpointWater temp
2018-Feb-24 04:30N 36°49' W 075°47'5 9.6
2018-Feb-24 04:00N 36°52' W 075°52'5 9.6
2018-Feb-24 03:30N 36°55' W 075°56'5 9.0
2018-Feb-24 03:00N 36°58' W 075°60'815.1
2018-Feb-24 02:30N 37°04' W 076°06'917.2
2018-Feb-24 01:58N 37°13' W 076°08'918.2
2018-Feb-24 01:28N 37°22' W 076°05'1017.5
2018-Feb-24 00:52N 37°32' W 076°02'1317.2
2018-Feb-24 00:06N 37°44' W 076°11'918.6
2018-Feb-23 23:38N 37°52' W 076°10'817.2
2018-Feb-23 23:08N 38°01' W 076°13'318.3
2018-Feb-23 22:59N 38°03' W 076°13'1118.4
2018-Feb-23 22:24N 38°14' W 076°16'1218.9
2018-Feb-23 21:47N 38°25' W 076°21'518.9
2018-Feb-23 21:30N 38°29' W 076°24'1018.0
2018-Feb-23 20:58N 38°39' W 076°25'918.7
2018-Feb-23 20:30N 38°48' W 076°25'918.9
2018-Feb-23 20:01N 38°57' W 076°23'815.9
2018-Feb-23 19:30N 39°05' W 076°24'713.1
2018-Feb-23 19:00N 39°11' W 076°27'510.9
2018-Feb-23 18:30N 39°14' W 076°33'2 3.4
2018-Feb-23 18:00N 39°15' W 076°35'0 0.0
2018-Feb-23 17:30N 39°15' W 076°35'0 0.0
2018-Feb-23 17:00N 39°15' W 076°35'0 0.0
2018-Feb-23 16:30N 39°15' W 076°35'0 0.0
2018-Feb-23 16:00N 39°15' W 076°35'0 0.0
2018-Feb-23 15:30N 39°15' W 076°35'0 0.0
2018-Feb-23 15:00N 39°15' W 076°35'0 0.0
2018-Feb-23 14:30N 39°15' W 076°35'0 0.0
2018-Feb-23 14:00N 39°15' W 076°35'0 0.0
2018-Feb-23 13:30N 39°15' W 076°35'0 0.0
2018-Feb-23 13:00N 39°15' W 076°35'0 0.0
2018-Feb-23 12:30N 39°15' W 076°35'0 0.0
2018-Feb-23 12:00N 39°15' W 076°35'0 0.0
2018-Feb-23 11:30N 39°15' W 076°35'0 0.0
2018-Feb-23 11:00N 39°15' W 076°35'0 0.0
2018-Feb-23 10:30N 39°15' W 076°35'0 0.0
2018-Feb-23 10:00N 39°15' W 076°35'0 0.0
2018-Feb-23 09:30N 39°15' W 076°35'0 0.0
2018-Feb-23 09:00N 39°15' W 076°35'0 0.0
2018-Feb-23 08:30N 39°15' W 076°35'0 0.0
2018-Feb-23 08:00N 39°15' W 076°35'0 0.0
2018-Feb-23 07:30N 39°15' W 076°35'0 0.0
2018-Feb-23 07:00N 39°15' W 076°35'0 0.0
2018-Feb-23 06:30N 39°15' W 076°35'0 0.0
2018-Feb-23 06:00N 39°15' W 076°35'0 0.0
2018-Feb-23 05:30N 39°15' W 076°35'0 0.0
2018-Feb-23 05:00N 39°15' W 076°35'0 0.0
2018-Feb-23 04:30N 39°15' W 076°35'0 0.0
2018-Feb-23 04:00N 39°15' W 076°35'0 0.0
2018-Feb-23 03:30N 39°15' W 076°35'0 0.0
2018-Feb-23 03:00N 39°15' W 076°35'0 0.0
2018-Feb-23 02:30N 39°15' W 076°35'0 0.0
2018-Feb-23 02:00N 39°15' W 076°35'0 0.0
2018-Feb-23 01:30N 39°15' W 076°35'1 1.0
2018-Feb-23 01:00N 39°15' W 076°34'1 2.9
2018-Feb-23 00:30N 39°15' W 076°32'0 0.7
2018-Feb-23 00:00N 39°15' W 076°32'0 0.0
2018-Feb-22 23:30N 39°15' W 076°32'0 0.0
2018-Feb-22 23:00N 39°15' W 076°32'0 0.0
2018-Feb-22 22:30N 39°15' W 076°32'0 0.0
2018-Feb-22 22:00N 39°15' W 076°32'0 0.0
2018-Feb-22 21:30N 39°15' W 076°32'0 0.0
2018-Feb-22 21:00N 39°15' W 076°32'0 0.0
2018-Feb-22 20:30N 39°15' W 076°32'0 0.0
2018-Feb-22 20:00N 39°15' W 076°32'0 0.0
2018-Feb-22 19:30N 39°15' W 076°32'0 0.0
2018-Feb-22 19:00N 39°15' W 076°32'0 0.0
2018-Feb-22 18:30N 39°15' W 076°32'0 0.0
2018-Feb-22 18:00N 39°15' W 076°32'0 0.0
2018-Feb-22 17:30N 39°15' W 076°32'0 0.0
2018-Feb-22 17:00N 39°15' W 076°32'0 0.0
2018-Feb-22 16:27N 39°15' W 076°32'0 0.0
2018-Feb-22 16:00N 39°15' W 076°32'0 0.0
2018-Feb-22 15:30N 39°15' W 076°32'0 0.0
2018-Feb-22 15:00N 39°15' W 076°32'0 0.0
2018-Feb-22 14:30N 39°15' W 076°32'0 0.0
2018-Feb-22 14:00N 39°15' W 076°32'0 0.0
2018-Feb-22 13:30N 39°15' W 076°32'0 0.0
2018-Feb-22 13:00N 39°15' W 076°32'0 0.0
2018-Feb-22 12:30N 39°15' W 076°32'0 0.0
2018-Feb-22 12:00N 39°15' W 076°32'0 0.0
2018-Feb-22 11:30N 39°15' W 076°32'0 0.0
2018-Feb-22 11:00N 39°15' W 076°32'0 0.0
2018-Feb-22 10:30N 39°15' W 076°32'0 0.0
2018-Feb-22 10:00N 39°15' W 076°32'0 0.0
2018-Feb-22 09:30N 39°15' W 076°32'0 0.0
2018-Feb-22 09:00N 39°15' W 076°32'0 0.0
2018-Feb-22 08:30N 39°15' W 076°32'0 0.0
2018-Feb-22 08:00N 39°15' W 076°32'0 0.0
2018-Feb-22 07:30N 39°15' W 076°32'0 0.0
2018-Feb-22 07:00N 39°15' W 076°32'1 1.3
2018-Feb-22 06:30N 39°15' W 076°32'1 2.5
2018-Feb-22 06:01N 39°14' W 076°34'0 0.0
2018-Feb-22 05:30N 39°14' W 076°34'0 0.0
2018-Feb-22 05:00N 39°14' W 076°34'0 0.0
2018-Feb-22 04:30N 39°14' W 076°34'0 0.0
2018-Feb-22 04:00N 39°14' W 076°34'0 0.0
2018-Feb-22 03:30N 39°14' W 076°34'0 0.0
2018-Feb-22 03:00N 39°14' W 076°34'0 0.0
2018-Feb-22 02:30N 39°14' W 076°34'0 0.0
2018-Feb-22 02:00N 39°14' W 076°34'0 0.0
2018-Feb-22 01:30N 39°14' W 076°34'0 0.0
2018-Feb-22 01:00N 39°14' W 076°34'0 0.0
2018-Feb-22 00:30N 39°14' W 076°34'0 0.0
2018-Feb-22 00:00N 39°14' W 076°34'0 0.0
2018-Feb-21 23:30N 39°14' W 076°34'0 0.0
2018-Feb-21 23:00N 39°14' W 076°34'0 0.0
2018-Feb-21 22:30N 39°14' W 076°34'0 0.0
2018-Feb-21 22:00N 39°14' W 076°34'0 0.0
2018-Feb-21 21:30N 39°14' W 076°34'0 0.0
2018-Feb-21 21:00N 39°14' W 076°34'0 0.0
2018-Feb-21 20:30N 39°14' W 076°34'0 0.0
2018-Feb-21 20:00N 39°14' W 076°34'0 0.0
2018-Feb-21 19:30N 39°14' W 076°34'0 0.0
2018-Feb-21 19:00N 39°14' W 076°34'0 0.6
2018-Feb-21 18:30N 39°15' W 076°34'1 2.1
2018-Feb-21 18:00N 39°14' W 076°33'4 7.9
2018-Feb-21 17:30N 39°11' W 076°29'612.5
2018-Feb-21 17:01N 39°07' W 076°24'714.2
2018-Feb-21 16:31N 38°59' W 076°23'816.4
2018-Feb-21 16:01N 38°51' W 076°24'917.9
2018-Feb-21 15:31N 38°42' W 076°26'917.6
2018-Feb-21 15:00N 38°33' W 076°26'917.7
2018-Feb-21 14:28N 38°25' W 076°21'1718.0
2018-Feb-21 13:33N 38°09' W 076°14'218.4
2018-Feb-21 13:27N 38°07' W 076°13'917.6
2018-Feb-21 12:56N 37°58' W 076°12'917.1
2018-Feb-21 12:26N 37°50' W 076°10'2015.8
2018-Feb-21 11:11N 37°31' W 076°03'416.5
2018-Feb-21 10:58N 37°28' W 076°04'816.1
2018-Feb-21 10:29N 37°20' W 076°05'816.4
2018-Feb-21 09:59N 37°12' W 076°09'815.3
2018-Feb-21 09:29N 37°05' W 076°06'714.1
2018-Feb-21 09:00N 36°60' W 076°01'5 9.9
2018-Feb-21 08:30N 36°56' W 075°56'5 9.3
2018-Feb-21 08:00N 36°53' W 075°52'5 9.6
2018-Feb-21 07:29N 36°50' W 075°47'  
2018-Feb-15 17:30N 37°13' W 029°36'916.4
2018-Feb-15 16:57N 37°15' W 029°25'716.3
2018-Feb-15 16:31N 37°16' W 029°16'816.1
2018-Feb-15 16:00N 37°17' W 029°06'815.7
2018-Feb-15 15:30N 37°18' W 028°56'816.2
2018-Feb-15 15:00N 37°18' W 028°46'816.3
2018-Feb-15 14:30N 37°18' W 028°36'816.7
2018-Feb-15 14:00N 37°19' W 028°26'917.0
2018-Feb-15 13:30N 37°21' W 028°15'917.4
2018-Feb-15 13:00N 37°25' W 028°05'917.4
2018-Feb-15 12:30N 37°28' W 027°55'917.9
2018-Feb-15 12:01N 37°32' W 027°45'917.8
2018-Feb-15 11:30N 37°36' W 027°35'917.6
2018-Feb-15 11:00N 37°39' W 027°25'917.8
2018-Feb-15 10:30N 37°43' W 027°14'918.5
2018-Feb-15 10:00N 37°47' W 027°04'918.0
2018-Feb-15 09:30N 37°50' W 026°53'917.7
2018-Feb-15 09:01N 37°54' W 026°43'917.8
2018-Feb-15 08:31N 37°57' W 026°33'918.1
2018-Feb-15 08:01N 38°01' W 026°22'917.8
2018-Feb-15 07:30N 38°05' W 026°12'918.1
2018-Feb-15 07:01N 38°08' W 026°01'917.9
2018-Feb-15 06:30N 38°12' W 025°51'918.1
2018-Feb-15 06:00N 38°16' W 025°41'918.0
2018-Feb-15 05:31N 38°20' W 025°30'917.6
2018-Feb-15 05:00N 38°23' W 025°20'917.6
2018-Feb-15 04:31N 38°27' W 025°10'917.6
2018-Feb-15 04:01N 38°31' W 024°60'917.4
2018-Feb-15 03:30N 38°35' W 024°50'917.2
2018-Feb-15 03:01N 38°38' W 024°40'917.2
2018-Feb-15 02:31N 38°42' W 024°30'917.2
2018-Feb-15 02:00N 38°46' W 024°20'916.9
2018-Feb-15 01:27N 38°50' W 024°09'716.9
2018-Feb-15 01:01N 38°54' W 024°01'917.0
2018-Feb-15 00:30N 38°57' W 023°51'816.6
2018-Feb-15 00:00N 39°01' W 023°41'1016.4
2018-Feb-14 23:22N 39°06' W 023°29'616.6
2018-Feb-14 23:01N 39°08' W 023°22'  
Track history (hours):
 
Tides and Currents Weather Stations Pressure Air Temp Water Temp Dewpoint Dewpoint Depression Visibility Wind Speed Wind Dir Waves Ship Positions

Dover Highway

Last reported at 2018-Feb-24 04:30 UTC. Time now 2018-Feb-25 02:12 UTC.
Position N 36°49' W 075°47'.

Length 199 m; draft 8.6 m.

Type: Cargo ship. MMSI: 432824000.

Date/timePositionNaut miles runAvg speedWind from/ knotsBaromVisibWave heightAir tempDewpointWater temp
2018-Feb-24 04:30N 36°49' W 075°47'5 9.6
2018-Feb-24 04:00N 36°52' W 075°52'5 9.6
2018-Feb-24 03:30N 36°55' W 075°56'5 9.0
2018-Feb-24 03:00N 36°58' W 075°60'815.1
2018-Feb-24 02:30N 37°04' W 076°06'917.2
2018-Feb-24 01:58N 37°13' W 076°08'918.2
2018-Feb-24 01:28N 37°22' W 076°05'1017.5
2018-Feb-24 00:52N 37°32' W 076°02'1317.2
2018-Feb-24 00:06N 37°44' W 076°11'918.6
2018-Feb-23 23:38N 37°52' W 076°10'817.2
2018-Feb-23 23:08N 38°01' W 076°13'318.3
2018-Feb-23 22:59N 38°03' W 076°13'1118.4
2018-Feb-23 22:24N 38°14' W 076°16'1218.9
2018-Feb-23 21:47N 38°25' W 076°21'518.9
2018-Feb-23 21:30N 38°29' W 076°24'1018.0
2018-Feb-23 20:58N 38°39' W 076°25'918.7
2018-Feb-23 20:30N 38°48' W 076°25'918.9
2018-Feb-23 20:01N 38°57' W 076°23'815.9
2018-Feb-23 19:30N 39°05' W 076°24'713.1
2018-Feb-23 19:00N 39°11' W 076°27'510.9
2018-Feb-23 18:30N 39°14' W 076°33'2 3.4
2018-Feb-23 18:00N 39°15' W 076°35'0 0.0
2018-Feb-23 17:30N 39°15' W 076°35'0 0.0
2018-Feb-23 17:00N 39°15' W 076°35'0 0.0
2018-Feb-23 16:30N 39°15' W 076°35'0 0.0
2018-Feb-23 16:00N 39°15' W 076°35'0 0.0
2018-Feb-23 15:30N 39°15' W 076°35'0 0.0
2018-Feb-23 15:00N 39°15' W 076°35'0 0.0
2018-Feb-23 14:30N 39°15' W 076°35'0 0.0
2018-Feb-23 14:00N 39°15' W 076°35'0 0.0
2018-Feb-23 13:30N 39°15' W 076°35'0 0.0
2018-Feb-23 13:00N 39°15' W 076°35'0 0.0
2018-Feb-23 12:30N 39°15' W 076°35'0 0.0
2018-Feb-23 12:00N 39°15' W 076°35'0 0.0
2018-Feb-23 11:30N 39°15' W 076°35'0 0.0
2018-Feb-23 11:00N 39°15' W 076°35'0 0.0
2018-Feb-23 10:30N 39°15' W 076°35'0 0.0
2018-Feb-23 10:00N 39°15' W 076°35'0 0.0
2018-Feb-23 09:30N 39°15' W 076°35'0 0.0
2018-Feb-23 09:00N 39°15' W 076°35'0 0.0
2018-Feb-23 08:30N 39°15' W 076°35'0 0.0
2018-Feb-23 08:00N 39°15' W 076°35'0 0.0
2018-Feb-23 07:30N 39°15' W 076°35'0 0.0
2018-Feb-23 07:00N 39°15' W 076°35'0 0.0
2018-Feb-23 06:30N 39°15' W 076°35'0 0.0
2018-Feb-23 06:00N 39°15' W 076°35'0 0.0
2018-Feb-23 05:30N 39°15' W 076°35'0 0.0
2018-Feb-23 05:00N 39°15' W 076°35'0 0.0
2018-Feb-23 04:30N 39°15' W 076°35'0 0.0
2018-Feb-23 04:00N 39°15' W 076°35'0 0.0
2018-Feb-23 03:30N 39°15' W 076°35'0 0.0
2018-Feb-23 03:00N 39°15' W 076°35'0 0.0
2018-Feb-23 02:30N 39°15' W 076°35'0 0.0
2018-Feb-23 02:00N 39°15' W 076°35'0 0.0
2018-Feb-23 01:30N 39°15' W 076°35'1 1.0
2018-Feb-23 01:00N 39°15' W 076°34'1 2.9
2018-Feb-23 00:30N 39°15' W 076°32'0 0.7
2018-Feb-23 00:00N 39°15' W 076°32'0 0.0
2018-Feb-22 23:30N 39°15' W 076°32'0 0.0
2018-Feb-22 23:00N 39°15' W 076°32'0 0.0
2018-Feb-22 22:30N 39°15' W 076°32'0 0.0
2018-Feb-22 22:00N 39°15' W 076°32'0 0.0
2018-Feb-22 21:30N 39°15' W 076°32'0 0.0
2018-Feb-22 21:00N 39°15' W 076°32'0 0.0
2018-Feb-22 20:30N 39°15' W 076°32'0 0.0
2018-Feb-22 20:00N 39°15' W 076°32'0 0.0
2018-Feb-22 19:30N 39°15' W 076°32'0 0.0
2018-Feb-22 19:00N 39°15' W 076°32'0 0.0
2018-Feb-22 18:30N 39°15' W 076°32'0 0.0
2018-Feb-22 18:00N 39°15' W 076°32'0 0.0
2018-Feb-22 17:30N 39°15' W 076°32'0 0.0
2018-Feb-22 17:00N 39°15' W 076°32'0 0.0
2018-Feb-22 16:27N 39°15' W 076°32'0 0.0
2018-Feb-22 16:00N 39°15' W 076°32'0 0.0
2018-Feb-22 15:30N 39°15' W 076°32'0 0.0
2018-Feb-22 15:00N 39°15' W 076°32'0 0.0
2018-Feb-22 14:30N 39°15' W 076°32'0 0.0
2018-Feb-22 14:00N 39°15' W 076°32'0 0.0
2018-Feb-22 13:30N 39°15' W 076°32'0 0.0
2018-Feb-22 13:00N 39°15' W 076°32'0 0.0
2018-Feb-22 12:30N 39°15' W 076°32'0 0.0
2018-Feb-22 12:00N 39°15' W 076°32'0 0.0
2018-Feb-22 11:30N 39°15' W 076°32'0 0.0
2018-Feb-22 11:00N 39°15' W 076°32'0 0.0
2018-Feb-22 10:30N 39°15' W 076°32'0 0.0
2018-Feb-22 10:00N 39°15' W 076°32'0 0.0
2018-Feb-22 09:30N 39°15' W 076°32'0 0.0
2018-Feb-22 09:00N 39°15' W 076°32'0 0.0
2018-Feb-22 08:30N 39°15' W 076°32'0 0.0
2018-Feb-22 08:00N 39°15' W 076°32'0 0.0
2018-Feb-22 07:30N 39°15' W 076°32'0 0.0
2018-Feb-22 07:00N 39°15' W 076°32'1 1.3
2018-Feb-22 06:30N 39°15' W 076°32'1 2.5
2018-Feb-22 06:01N 39°14' W 076°34'0 0.0
2018-Feb-22 05:30N 39°14' W 076°34'0 0.0
2018-Feb-22 05:00N 39°14' W 076°34'0 0.0
2018-Feb-22 04:30N 39°14' W 076°34'0 0.0
2018-Feb-22 04:00N 39°14' W 076°34'0 0.0
2018-Feb-22 03:30N 39°14' W 076°34'0 0.0
2018-Feb-22 03:00N 39°14' W 076°34'0 0.0
2018-Feb-22 02:30N 39°14' W 076°34'0 0.0
2018-Feb-22 02:00N 39°14' W 076°34'0 0.0
2018-Feb-22 01:30N 39°14' W 076°34'0 0.0
2018-Feb-22 01:00N 39°14' W 076°34'0 0.0
2018-Feb-22 00:30N 39°14' W 076°34'0 0.0
2018-Feb-22 00:00N 39°14' W 076°34'0 0.0
2018-Feb-21 23:30N 39°14' W 076°34'0 0.0
2018-Feb-21 23:00N 39°14' W 076°34'0 0.0
2018-Feb-21 22:30N 39°14' W 076°34'0 0.0
2018-Feb-21 22:00N 39°14' W 076°34'0 0.0
2018-Feb-21 21:30N 39°14' W 076°34'0 0.0
2018-Feb-21 21:00N 39°14' W 076°34'0 0.0
2018-Feb-21 20:30N 39°14' W 076°34'0 0.0
2018-Feb-21 20:00N 39°14' W 076°34'0 0.0
2018-Feb-21 19:30N 39°14' W 076°34'0 0.0
2018-Feb-21 19:00N 39°14' W 076°34'0 0.6
2018-Feb-21 18:30N 39°15' W 076°34'1 2.1
2018-Feb-21 18:00N 39°14' W 076°33'4 7.9
2018-Feb-21 17:30N 39°11' W 076°29'612.5
2018-Feb-21 17:01N 39°07' W 076°24'714.2
2018-Feb-21 16:31N 38°59' W 076°23'816.4
2018-Feb-21 16:01N 38°51' W 076°24'917.9
2018-Feb-21 15:31N 38°42' W 076°26'917.6
2018-Feb-21 15:00N 38°33' W 076°26'917.7
2018-Feb-21 14:28N 38°25' W 076°21'1718.0
2018-Feb-21 13:33N 38°09' W 076°14'218.4
2018-Feb-21 13:27N 38°07' W 076°13'917.6
2018-Feb-21 12:56N 37°58' W 076°12'917.1
2018-Feb-21 12:26N 37°50' W 076°10'2015.8
2018-Feb-21 11:11N 37°31' W 076°03'416.5
2018-Feb-21 10:58N 37°28' W 076°04'816.1
2018-Feb-21 10:29N 37°20' W 076°05'816.4
2018-Feb-21 09:59N 37°12' W 076°09'815.3
2018-Feb-21 09:29N 37°05' W 076°06'714.1
2018-Feb-21 09:00N 36°60' W 076°01'5 9.9
2018-Feb-21 08:30N 36°56' W 075°56'5 9.3
2018-Feb-21 08:00N 36°53' W 075°52'5 9.6
2018-Feb-21 07:29N 36°50' W 075°47'  
2018-Feb-15 17:30N 37°13' W 029°36'916.4
2018-Feb-15 16:57N 37°15' W 029°25'716.3
2018-Feb-15 16:31N 37°16' W 029°16'816.1
2018-Feb-15 16:00N 37°17' W 029°06'815.7
2018-Feb-15 15:30N 37°18' W 028°56'816.2
2018-Feb-15 15:00N 37°18' W 028°46'816.3
2018-Feb-15 14:30N 37°18' W 028°36'816.7
2018-Feb-15 14:00N 37°19' W 028°26'917.0
2018-Feb-15 13:30N 37°21' W 028°15'917.4
2018-Feb-15 13:00N 37°25' W 028°05'917.4
2018-Feb-15 12:30N 37°28' W 027°55'917.9
2018-Feb-15 12:01N 37°32' W 027°45'917.8
2018-Feb-15 11:30N 37°36' W 027°35'917.6
2018-Feb-15 11:00N 37°39' W 027°25'917.8
2018-Feb-15 10:30N 37°43' W 027°14'918.5
2018-Feb-15 10:00N 37°47' W 027°04'918.0
2018-Feb-15 09:30N 37°50' W 026°53'917.7
2018-Feb-15 09:01N 37°54' W 026°43'917.8
2018-Feb-15 08:31N 37°57' W 026°33'918.1
2018-Feb-15 08:01N 38°01' W 026°22'917.8
2018-Feb-15 07:30N 38°05' W 026°12'918.1
2018-Feb-15 07:01N 38°08' W 026°01'917.9
2018-Feb-15 06:30N 38°12' W 025°51'918.1
2018-Feb-15 06:00N 38°16' W 025°41'918.0
2018-Feb-15 05:31N 38°20' W 025°30'917.6
2018-Feb-15 05:00N 38°23' W 025°20'917.6
2018-Feb-15 04:31N 38°27' W 025°10'917.6
2018-Feb-15 04:01N 38°31' W 024°60'917.4
2018-Feb-15 03:30N 38°35' W 024°50'917.2
2018-Feb-15 03:01N 38°38' W 024°40'917.2
2018-Feb-15 02:31N 38°42' W 024°30'917.2
2018-Feb-15 02:00N 38°46' W 024°20'916.9
2018-Feb-15 01:27N 38°50' W 024°09'716.9
2018-Feb-15 01:01N 38°54' W 024°01'917.0
2018-Feb-15 00:30N 38°57' W 023°51'816.6
2018-Feb-15 00:00N 39°01' W 023°41'1016.4
2018-Feb-14 23:22N 39°06' W 023°29'616.6
2018-Feb-14 23:01N 39°08' W 023°22'  

Dump ship's entire track history